Time;durP1;ratioP1;P1;durP2;ratioP2;P2;SDS_P1;SDS_P2;PMS_P1;PMS_P2;Temp;Humidity;BMP_temperature;BMP_pressure;BME280_temperature;BME280_humidity;BME280_pressure;Samples;Min_cycle;Max_cycle;Signal;HPM_P1;HPM_P2
2023/06/29 00:01:10;;;;;;;6.35;3.75;;;;;;;21.74;34.86;101250.00;5048719;28;20071;-77
2023/06/29 00:03:41;;;;;;;6.40;3.45;;;;;;;21.75;34.93;101253.63;5075703;28;20067;-77
2023/06/29 00:06:11;;;;;;;6.45;3.40;;;;;;;21.72;35.22;101246.53;5069906;28;20059;-77
2023/06/29 00:08:40;;;;;;;5.68;3.70;;;;;;;21.72;35.05;101249.31;5081323;28;20063;-76
2023/06/29 00:11:11;;;;;;;6.55;4.10;;;;;;;21.71;34.90;101246.72;5078657;28;20110;-77
2023/06/29 00:13:39;;;;;;;7.15;3.88;;;;;;;21.72;34.97;101242.88;5073933;28;20072;-77
2023/06/29 00:16:07;;;;;;;6.70;3.67;;;;;;;21.71;34.94;101233.66;5063320;28;20041;-76
2023/06/29 00:18:36;;;;;;;6.55;3.90;;;;;;;21.73;34.94;101239.03;5074890;28;20085;-76
2023/06/29 00:21:04;;;;;;;6.57;3.72;;;;;;;21.70;34.92;101237.50;5047219;28;20048;-77
2023/06/29 00:23:34;;;;;;;5.78;3.65;;;;;;;21.70;34.99;101236.63;5067677;28;20180;-77
2023/06/29 00:26:02;;;;;;;6.28;3.65;;;;;;;21.69;34.94;101233.00;5052381;28;20504;-77
2023/06/29 00:28:30;;;;;;;7.60;4.22;;;;;;;21.69;34.88;101235.78;5066917;28;20099;-77
2023/06/29 00:30:58;;;;;;;6.70;3.70;;;;;;;21.69;34.95;101230.19;5053292;28;20055;-77
2023/06/29 00:33:27;;;;;;;6.47;4.13;;;;;;;21.69;34.85;101229.34;5071375;28;20073;-79
2023/06/29 00:35:58;;;;;;;6.13;3.78;;;;;;;21.69;34.88;101224.63;5048758;28;20090;-79
2023/06/29 00:38:25;;;;;;;5.60;3.50;;;;;;;21.67;34.87;101226.78;5074371;28;20066;-77
2023/06/29 00:40:53;;;;;;;5.93;3.53;;;;;;;21.65;34.79;101220.53;5052973;28;20918;-77
2023/06/29 00:43:21;;;;;;;6.97;3.70;;;;;;;21.66;34.91;101229.75;5066431;28;20052;-78
2023/06/29 00:45:49;;;;;;;5.35;3.75;;;;;;;21.66;34.77;101230.63;5052852;28;20036;-78
2023/06/29 00:48:17;;;;;;;5.70;3.72;;;;;;;21.65;34.88;101225.25;5055993;28;20538;-78
2023/06/29 00:50:45;;;;;;;7.10;3.78;;;;;;;21.64;35.33;101224.38;5054315;28;20056;-79
2023/06/29 00:53:16;;;;;;;6.07;3.67;;;;;;;21.66;34.94;101230.63;5049893;28;20076;-77
2023/06/29 00:55:44;;;;;;;5.38;3.50;;;;;;;21.63;35.03;101222.66;5058015;28;20071;-77
2023/06/29 00:58:12;;;;;;;6.95;3.30;;;;;;;21.63;34.69;101222.66;5069378;28;20162;-78
2023/06/29 01:00:41;;;;;;;8.60;3.90;;;;;;;21.63;35.03;101214.28;5073560;28;20054;-78
2023/06/29 01:03:09;;;;;;;6.22;3.60;;;;;;;21.63;35.10;101214.28;5064258;28;20056;-79
2023/06/29 01:05:39;;;;;;;7.53;4.00;;;;;;;21.62;35.04;101204.22;5061997;28;20057;-77
2023/06/29 01:08:12;;;;;;;6.65;4.20;;;;;;;21.65;35.17;101211.31;5056406;28;20519;-78
2023/06/29 01:10:45;;;;;;;6.47;3.90;;;;;;;21.65;35.00;101201.03;5047053;28;20087;-77
2023/06/29 01:13:15;;;;;;;5.65;3.67;;;;;;;21.62;34.97;101203.34;5065790;28;20139;-78
2023/06/29 01:15:44;;;;;;;8.38;3.97;;;;;;;21.60;34.96;101199.91;5067950;28;20043;-77
2023/06/29 01:18:14;;;;;;;8.00;3.75;;;;;;;21.58;34.75;101202.03;5047694;28;20048;-79
2023/06/29 01:20:42;;;;;;;6.20;3.65;;;;;;;21.58;34.88;101202.03;5050429;28;20063;-78
2023/06/29 01:23:12;;;;;;;7.20;4.18;;;;;;;21.55;35.04;101208.84;5045755;28;20127;-77
2023/06/29 01:25:41;;;;;;;7.55;4.10;;;;;;;21.54;35.36;101204.34;5045957;28;20045;-79
2023/06/29 01:28:11;;;;;;;5.80;3.57;;;;;;;21.48;35.10;101203.22;5064371;28;20063;-78
2023/06/29 01:30:49;;;;;;;5.72;3.78;;;;;;;21.47;35.29;101204.28;5050648;28;20495;-77
2023/06/29 01:33:23;;;;;;;6.47;4.35;;;;;;;21.48;35.32;101205.13;5064633;28;20049;-77
2023/06/29 01:35:57;;;;;;;6.35;3.63;;;;;;;21.46;35.27;101190.53;5046587;28;20045;-79
2023/06/29 01:38:34;;;;;;;7.15;3.83;;;;;;;21.45;35.32;101199.94;5054214;28;20076;-77
2023/06/29 01:41:05;;;;;;;6.10;3.60;;;;;;;21.43;35.37;101202.97;5053016;28;20055;-77
2023/06/29 01:43:35;;;;;;;7.82;3.97;;;;;;;21.38;35.34;101196.25;5048629;28;20585;-79
2023/06/29 01:46:05;;;;;;;5.53;3.97;;;;;;;21.41;35.47;101195.84;5066625;28;20546;-78
2023/06/29 01:48:35;;;;;;;6.70;4.00;;;;;;;21.39;35.54;101192.41;5044446;28;20544;-78
2023/06/29 01:51:03;;;;;;;5.03;3.20;;;;;;;21.37;35.31;101191.72;5052448;28;20136;-78
2023/06/29 01:53:31;;;;;;;6.22;4.30;;;;;;;21.35;35.36;101191.09;5066625;28;20086;-78
2023/06/29 01:56:05;;;;;;;6.80;3.78;;;;;;;21.37;35.43;101192.59;5062297;28;20044;-79
2023/06/29 01:58:34;;;;;;;5.07;3.55;;;;;;;21.34;35.50;101190.22;5048740;28;20044;-78
2023/06/29 02:01:02;;;;;;;5.60;3.70;;;;;;;21.34;35.46;101192.13;5052762;28;20052;-78
2023/06/29 02:03:31;;;;;;;5.82;4.18;;;;;;;21.33;35.65;101187.63;5050021;28;20071;-78
2023/06/29 02:05:59;;;;;;;5.95;3.88;;;;;;;21.32;35.66;101189.53;5057531;28;20463;-78
2023/06/29 02:08:27;;;;;;;6.97;4.20;;;;;;;21.33;35.74;101182.06;5066515;28;20089;-78
2023/06/29 02:10:54;;;;;;;5.03;3.47;;;;;;;21.32;35.68;101188.69;5055548;28;20032;-77
2023/06/29 02:13:24;;;;;;;6.05;3.72;;;;;;;21.33;35.67;101185.72;5061531;28;20055;-78
2023/06/29 02:15:52;;;;;;;8.57;4.47;;;;;;;21.30;35.56;101177.75;5050851;28;20056;-78
2023/06/29 02:18:21;;;;;;;6.82;3.83;;;;;;;21.30;35.90;101171.31;5047255;28;20428;-77
2023/06/29 02:20:49;;;;;;;5.50;4.03;;;;;;;21.29;35.85;101172.38;5045022;28;20090;-79
2023/06/29 02:23:17;;;;;;;6.20;3.72;;;;;;;21.30;35.76;101168.53;5053097;28;20059;-78
2023/06/29 02:25:44;;;;;;;6.13;3.97;;;;;;;21.28;35.84;101174.28;5048233;28;20044;-79
2023/06/29 02:28:13;;;;;;;5.45;3.58;;;;;;;21.28;35.91;101171.50;5055237;28;20044;-76
2023/06/29 02:30:42;;;;;;;6.38;4.00;;;;;;;21.30;35.96;101165.75;5080511;28;20494;-77
2023/06/29 02:33:10;;;;;;;6.22;4.03;;;;;;;21.26;35.96;101170.84;5070059;28;20076;-79
2023/06/29 02:35:39;;;;;;;5.32;4.00;;;;;;;21.26;35.97;101164.44;5064945;28;20630;-79
2023/06/29 02:38:07;;;;;;;6.00;4.05;;;;;;;21.25;36.03;101160.75;5059766;28;20056;-78
2023/06/29 02:40:35;;;;;;;6.35;4.05;;;;;;;21.25;36.04;101159.88;5071365;28;20462;-78
2023/06/29 02:43:03;;;;;;;5.90;3.75;;;;;;;21.24;36.18;101170.16;5055107;28;20131;-79
2023/06/29 02:45:31;;;;;;;6.22;4.10;;;;;;;21.24;36.05;101163.72;5074420;28;20143;-79
2023/06/29 02:48:01;;;;;;;5.60;3.70;;;;;;;21.25;35.92;101166.31;5059031;28;20573;-78
2023/06/29 02:50:29;;;;;;;5.45;3.88;;;;;;;21.23;36.14;101162.84;5078772;28;20039;-78
2023/06/29 02:52:57;;;;;;;8.15;4.20;;;;;;;21.24;36.15;101158.16;5055702;28;20049;-78
2023/06/29 02:55:26;;;;;;;6.03;3.83;;;;;;;21.23;36.12;101160.06;5052166;28;20132;-78
2023/06/29 02:57:53;;;;;;;6.03;3.80;;;;;;;21.22;36.06;101155.56;5063787;28;20120;-77
2023/06/29 03:00:22;;;;;;;7.88;4.30;;;;;;;21.22;36.14;101154.69;5065785;28;20389;-78
2023/06/29 03:02:50;;;;;;;6.22;4.13;;;;;;;21.21;36.25;101162.19;5042498;28;20106;-78
2023/06/29 03:05:19;;;;;;;6.05;3.60;;;;;;;21.23;36.21;101159.22;5071932;28;20694;-78
2023/06/29 03:07:47;;;;;;;7.82;4.20;;;;;;;21.19;36.18;101163.47;5065826;28;20507;-77
2023/06/29 03:10:15;;;;;;;6.25;4.10;;;;;;;21.19;36.29;101160.69;5043992;28;20472;-79
2023/06/29 03:12:43;;;;;;;6.38;3.85;;;;;;;21.18;36.41;101156.16;5066812;28;20059;-78
2023/06/29 03:15:11;;;;;;;5.63;3.80;;;;;;;21.17;36.22;101149.75;5067859;28;20052;-76
2023/06/29 03:17:39;;;;;;;6.22;4.38;;;;;;;21.17;36.33;101146.09;5080018;28;20063;-78
2023/06/29 03:20:08;;;;;;;6.75;4.00;;;;;;;21.17;36.31;101143.31;5054663;28;20041;-77
2023/06/29 03:22:37;;;;;;;5.82;4.22;;;;;;;21.15;36.10;101140.72;5048182;28;20041;-76
2023/06/29 03:25:06;;;;;;;6.00;3.90;;;;;;;21.14;36.28;101141.75;5065979;28;20068;-79
2023/06/29 03:27:34;;;;;;;6.65;3.80;;;;;;;21.12;36.50;101138.31;5059315;28;20045;-78
2023/06/29 03:30:02;;;;;;;5.03;3.63;;;;;;;21.11;36.49;101131.00;5053003;28;20136;-78
2023/06/29 03:32:32;;;;;;;6.57;3.95;;;;;;;21.11;36.77;101131.00;5093042;22;20109;-75
2023/06/29 03:35:00;;;;;;;5.53;3.65;;;;;;;21.11;36.71;101133.81;5050340;28;20143;-75
2023/06/29 03:37:27;;;;;;;5.70;3.70;;;;;;;21.10;36.54;101141.31;5067231;28;20495;-74
2023/06/29 03:39:57;;;;;;;5.63;4.13;;;;;;;21.12;36.58;101136.38;5051190;28;20049;-74
2023/06/29 03:42:24;;;;;;;7.70;4.18;;;;;;;21.10;36.77;101132.97;5083735;28;20052;-75
2023/06/29 03:44:52;;;;;;;7.03;4.32;;;;;;;21.11;36.75;101134.66;5090590;28;20036;-74
2023/06/29 03:47:20;;;;;;;4.22;3.42;;;;;;;21.10;36.75;101141.31;5087523;28;20036;-75
2023/06/29 03:49:48;;;;;;;5.70;3.90;;;;;;;21.11;36.85;101143.00;5089383;28;20111;-75
2023/06/29 03:52:16;;;;;;;5.80;3.95;;;;;;;21.13;36.86;101140.03;5087664;28;20062;-74
2023/06/29 03:54:43;;;;;;;5.85;4.30;;;;;;;21.11;36.92;101126.31;5085830;28;20418;-74
2023/06/29 03:57:13;;;;;;;6.10;4.18;;;;;;;21.14;37.11;101130.63;5086483;28;20082;-75
2023/06/29 03:59:41;;;;;;;6.55;4.35;;;;;;;21.11;36.85;101126.31;5088954;28;20068;-75
2023/06/29 04:02:08;;;;;;;6.38;3.88;;;;;;;21.11;37.02;101129.09;5088307;28;20048;-75
2023/06/29 04:04:39;;;;;;;6.80;4.22;;;;;;;21.10;37.03;101124.63;5087135;28;20046;-74
2023/06/29 04:07:07;;;;;;;5.35;4.05;;;;;;;21.11;37.06;101123.53;5069837;28;20047;-75
2023/06/29 04:09:35;;;;;;;6.50;4.30;;;;;;;21.12;36.99;101121.63;5078133;28;20040;-75
2023/06/29 04:12:03;;;;;;;7.10;3.67;;;;;;;21.11;37.15;101117.97;5087090;28;20051;-75
2023/06/29 04:14:32;;;;;;;6.95;4.32;;;;;;;21.12;37.09;101119.69;5086753;28;20048;-75
2023/06/29 04:16:59;;;;;;;5.30;3.95;;;;;;;21.10;37.03;101116.28;5078501;28;20052;-75
2023/06/29 04:19:27;;;;;;;5.78;3.58;;;;;;;21.10;37.07;101105.13;5066002;28;20078;-75
2023/06/29 04:21:55;;;;;;;5.35;3.75;;;;;;;21.10;37.40;101107.91;5088154;28;20056;-75
2023/06/29 04:24:23;;;;;;;6.70;3.90;;;;;;;21.09;37.09;101106.19;5088419;28;20118;-75
2023/06/29 04:26:52;;;;;;;5.60;3.72;;;;;;;21.09;37.24;101106.19;5065194;28;20539;-75
2023/06/29 04:29:20;;;;;;;5.97;3.92;;;;;;;21.09;37.05;101111.75;5083958;28;20119;-75
2023/06/29 04:31:50;;;;;;;6.63;4.28;;;;;;;21.11;37.38;101109.63;5068433;28;20058;-75
2023/06/29 04:34:18;;;;;;;6.15;3.75;;;;;;;21.10;37.31;101104.28;5087141;28;20051;-75
2023/06/29 04:36:46;;;;;;;5.30;3.85;;;;;;;21.10;37.34;101102.34;5086614;28;20412;-75
2023/06/29 04:39:14;;;;;;;7.63;4.45;;;;;;;21.10;37.40;101096.78;5087874;28;20075;-75
2023/06/29 04:41:42;;;;;;;7.35;4.07;;;;;;;21.11;37.34;101095.69;5067881;28;20047;-75
2023/06/29 04:44:10;;;;;;;5.88;3.83;;;;;;;21.10;37.34;101094.00;5083414;28;20040;-74
2023/06/29 04:46:39;;;;;;;5.55;3.90;;;;;;;21.11;37.55;101098.47;5064921;28;20051;-75
2023/06/29 04:49:09;;;;;;;6.68;4.38;;;;;;;21.14;37.33;101100.03;5067570;28;20086;-76
2023/06/29 04:51:38;;;;;;;6.90;4.35;;;;;;;21.12;37.68;101096.56;5086656;28;20093;-75
2023/06/29 04:54:06;;;;;;;6.72;4.32;;;;;;;21.12;37.47;101099.34;5085028;28;20494;-75
2023/06/29 04:56:34;;;;;;;6.07;4.13;;;;;;;21.12;37.51;101093.78;5069639;28;20071;-75
2023/06/29 04:59:02;;;;;;;6.20;4.22;;;;;;;21.11;37.33;101092.06;5086394;28;20054;-74
2023/06/29 05:01:30;;;;;;;6.35;4.20;;;;;;;21.11;37.51;101095.69;5084850;28;20032;-74
2023/06/29 05:03:58;;;;;;;7.15;4.22;;;;;;;21.10;37.68;101091.22;5067703;28;20090;-74
2023/06/29 05:06:30;;;;;;;5.78;3.88;;;;;;;21.12;37.46;101093.78;5063126;28;20052;-74
2023/06/29 05:08:58;;;;;;;7.32;4.35;;;;;;;21.10;37.83;101096.78;5086746;28;20138;-75
2023/06/29 05:11:26;;;;;;;6.47;4.25;;;;;;;21.09;37.66;101092.28;5085099;28;20468;-74
2023/06/29 05:13:54;;;;;;;6.18;4.38;;;;;;;21.10;37.56;101095.94;5087380;28;20032;-74
2023/06/29 05:16:22;;;;;;;7.60;4.63;;;;;;;21.09;37.54;101096.97;5063930;28;20394;-74
2023/06/29 05:18:50;;;;;;;6.15;4.20;;;;;;;21.10;37.32;101105.13;5087540;28;20037;-75
2023/06/29 05:21:18;;;;;;;8.05;4.50;;;;;;;21.10;37.83;101094.00;5083681;28;20426;-75
2023/06/29 05:23:47;;;;;;;6.32;4.20;;;;;;;21.11;38.10;101092.91;5087507;28;20488;-74
2023/06/29 05:26:15;;;;;;;7.30;4.47;;;;;;;21.10;37.82;101090.34;5097631;28;20453;-74
2023/06/29 05:28:43;;;;;;;6.88;4.68;;;;;;;21.10;37.65;101085.66;5087358;28;20050;-75
2023/06/29 05:31:31;;;;;;;6.72;4.32;;;;;;;21.09;37.77;101089.50;5083677;28;20117;-74
2023/06/29 05:33:58;;;;;;;8.30;5.05;;;;;;;21.10;37.91;101085.66;5082165;28;20063;-75
2023/06/29 05:36:27;;;;;;;7.95;4.80;;;;;;;21.11;38.01;101084.56;5087327;28;20044;-74
2023/06/29 05:38:56;;;;;;;6.25;4.53;;;;;;;21.13;38.00;101084.38;5088197;28;20063;-74
2023/06/29 05:41:24;;;;;;;7.85;4.68;;;;;;;21.11;38.12;101083.69;5086801;28;20036;-75
2023/06/29 05:43:52;;;;;;;7.55;4.85;;;;;;;21.11;37.97;101086.47;5086152;28;20032;-74
2023/06/29 05:46:20;;;;;;;6.75;4.25;;;;;;;21.12;38.10;101077.09;5086348;28;20040;-75
2023/06/29 05:48:47;;;;;;;7.68;4.53;;;;;;;21.13;38.17;101089.94;5083797;28;21043;-74
2023/06/29 05:51:15;;;;;;;7.72;4.40;;;;;;;21.14;38.14;101091.66;5083511;28;20067;-74
2023/06/29 05:53:43;;;;;;;7.38;4.30;;;;;;;21.15;38.14;101093.41;5062796;28;20040;-74
2023/06/29 05:56:13;;;;;;;7.18;4.00;;;;;;;21.19;38.20;101091.94;5084199;28;20051;-75
2023/06/29 05:58:41;;;;;;;8.00;4.65;;;;;;;21.19;38.14;101091.09;5083856;28;20052;-74
2023/06/29 06:01:08;;;;;;;5.63;4.43;;;;;;;21.20;38.15;101093.66;5085284;28;20078;-74
2023/06/29 06:03:36;;;;;;;6.57;3.78;;;;;;;21.21;38.06;101095.38;5087091;28;20109;-74
2023/06/29 06:06:05;;;;;;;6.78;4.07;;;;;;;21.23;38.04;101092.41;5090218;28;20430;-74
2023/06/29 06:08:33;;;;;;;7.93;4.63;;;;;;;21.24;38.18;101089.44;5067829;28;20444;-74
2023/06/29 06:11:01;;;;;;;6.32;4.05;;;;;;;21.25;38.11;101091.16;5090753;28;20043;-74
2023/06/29 06:13:31;;;;;;;6.63;4.28;;;;;;;21.29;38.22;101091.63;5090032;28;20036;-74
2023/06/29 06:15:59;;;;;;;7.05;3.90;;;;;;;21.27;38.12;101083.50;5090528;28;20051;-75
2023/06/29 06:18:27;;;;;;;7.97;4.15;;;;;;;21.29;38.31;101077.72;5077068;28;20062;-74
2023/06/29 06:20:55;;;;;;;6.07;3.92;;;;;;;21.29;38.20;101081.34;5089220;28;20098;-74
2023/06/29 06:23:23;;;;;;;7.80;4.10;;;;;;;21.31;38.19;101076.47;5089670;28;20435;-74
2023/06/29 06:25:51;;;;;;;5.65;3.78;;;;;;;21.32;38.31;101085.69;5092968;28;20499;-75
2023/06/29 06:28:19;;;;;;;7.43;4.53;;;;;;;21.34;38.30;101078.00;5085676;28;20520;-74
2023/06/29 06:30:49;;;;;;;7.95;3.95;;;;;;;21.37;38.37;101077.56;5091214;28;20121;-74
2023/06/29 06:33:19;;;;;;;7.60;4.07;;;;;;;21.35;38.21;101076.94;5090251;28;20131;-74
2023/06/29 06:35:47;;;;;;;6.55;3.88;;;;;;;21.38;37.90;101079.31;5089250;28;20044;-74
2023/06/29 06:38:14;;;;;;;8.20;4.10;;;;;;;21.39;38.28;101083.81;5087759;28;20074;-75
2023/06/29 06:40:42;;;;;;;6.22;4.13;;;;;;;21.41;38.14;101084.47;5073515;28;20058;-75
2023/06/29 06:43:11;;;;;;;6.15;3.85;;;;;;;21.42;38.43;101083.41;5089843;28;20640;-75
2023/06/29 06:45:39;;;;;;;5.93;4.00;;;;;;;21.44;38.31;101090.50;5088742;28;20032;-75
2023/06/29 06:48:08;;;;;;;7.55;3.83;;;;;;;21.46;38.27;101088.38;5089317;28;20055;-75
2023/06/29 06:50:38;;;;;;;5.37;3.63;;;;;;;21.44;38.33;101089.63;5072244;28;20040;-76
2023/06/29 06:53:06;;;;;;;6.97;3.63;;;;;;;21.49;38.44;101089.91;5068533;28;21113;-75
2023/06/29 06:55:34;;;;;;;6.32;4.03;;;;;;;21.51;38.40;101085.00;5091920;28;20047;-75
2023/06/29 06:58:02;;;;;;;5.90;3.55;;;;;;;21.52;38.23;101086.69;5089535;28;20050;-75
2023/06/29 07:00:30;;;;;;;5.70;3.40;;;;;;;21.54;38.34;101087.38;5085024;28;20489;-76
2023/06/29 07:02:58;;;;;;;6.90;3.70;;;;;;;21.56;38.38;101082.47;5088454;28;20083;-75
2023/06/29 07:05:27;;;;;;;4.95;3.13;;;;;;;21.59;38.33;101087.66;5074596;28;20143;-75
2023/06/29 07:07:55;;;;;;;6.93;3.63;;;;;;;21.60;38.32;101075.44;5089532;28;20047;-76
2023/06/29 07:10:23;;;;;;;5.70;3.55;;;;;;;21.62;38.61;101078.88;5089548;28;20096;-76
2023/06/29 07:12:51;;;;;;;5.78;3.38;;;;;;;21.64;38.36;101082.31;5084099;28;20036;-76
2023/06/29 07:15:19;;;;;;;6.90;3.47;;;;;;;21.68;38.42;101085.56;5089047;28;20055;-75
2023/06/29 07:17:47;;;;;;;5.55;3.65;;;;;;;21.70;38.35;101083.44;5086788;28;20131;-73
2023/06/29 07:20:15;;;;;;;7.25;4.00;;;;;;;21.72;38.49;101084.09;5089696;28;20036;-74
2023/06/29 07:22:47;;;;;;;6.18;3.85;;;;;;;21.76;38.24;101075.16;5085986;28;20122;-75
2023/06/29 07:25:18;;;;;;;5.70;3.70;;;;;;;21.74;38.33;101074.47;5087554;28;20044;-75
2023/06/29 07:27:46;;;;;;;5.78;3.70;;;;;;;21.78;38.41;101080.50;5088383;28;20040;-73
2023/06/29 07:30:16;;;;;;;5.57;3.50;;;;;;;21.81;38.27;101083.75;5078467;28;20048;-74
2023/06/29 07:32:44;;;;;;;5.68;3.40;;;;;;;21.82;38.34;101085.47;5087206;28;20450;-74
2023/06/29 07:35:14;;;;;;;7.10;3.90;;;;;;;21.84;38.71;101080.56;5089993;28;20036;-73
2023/06/29 07:37:41;;;;;;;6.18;4.25;;;;;;;21.87;38.21;101076.50;5088502;28;20044;-73
2023/06/29 07:40:11;;;;;;;7.35;3.95;;;;;;;21.93;38.14;101078.53;5089988;28;20047;-74
2023/06/29 07:42:39;;;;;;;5.22;3.63;;;;;;;21.94;38.47;101073.78;5070643;28;20132;-74
2023/06/29 07:45:08;;;;;;;6.20;3.17;;;;;;;21.98;38.29;101073.19;5085055;28;20048;-73
2023/06/29 07:47:36;;;;;;;4.80;3.28;;;;;;;22.01;38.36;101070.00;5085075;28;20079;-73
2023/06/29 07:50:05;;;;;;;5.57;3.78;;;;;;;22.06;38.42;101072.16;5090173;28;20052;-73
2023/06/29 07:52:33;;;;;;;5.95;3.50;;;;;;;22.09;38.33;101063.41;5087115;28;20101;-75
2023/06/29 07:55:01;;;;;;;6.32;3.70;;;;;;;22.13;38.18;101073.06;5084636;28;20036;-74
2023/06/29 07:57:30;;;;;;;6.05;3.80;;;;;;;22.19;38.23;101075.00;5088507;28;20044;-74
2023/06/29 08:00:01;;;;;;;6.40;3.17;;;;;;;22.17;38.29;101064.09;5088334;28;20494;-74
2023/06/29 08:02:46;;;;;;;6.07;3.60;;;;;;;22.23;38.07;101077.19;5074705;28;20103;-73
2023/06/29 08:05:14;;;;;;;6.80;3.42;;;;;;;22.27;38.11;101077.63;5069108;28;20043;-73
2023/06/29 08:07:45;;;;;;;7.47;4.00;;;;;;;22.31;38.04;101078.94;5085286;28;20110;-76
2023/06/29 08:10:14;;;;;;;5.85;3.88;;;;;;;22.34;37.92;101072.97;5067890;28;20043;-75
2023/06/29 08:12:43;;;;;;;6.45;3.55;;;;;;;22.38;37.70;101068.69;5070991;28;20119;-74
2023/06/29 08:15:11;;;;;;;6.28;3.75;;;;;;;22.38;38.07;101073.41;5088073;28;20040;-75
2023/06/29 08:17:39;;;;;;;6.10;3.58;;;;;;;22.39;37.74;101067.63;5086619;28;20063;-74
2023/06/29 08:20:12;;;;;;;6.15;4.30;;;;;;;22.42;37.75;101067.22;5088581;28;20047;-74
2023/06/29 08:22:40;;;;;;;6.22;4.13;;;;;;;22.43;37.82;101070.84;5085705;28;20067;-74
2023/06/29 08:25:09;;;;;;;6.53;3.80;;;;;;;22.46;37.52;101073.22;5089987;28;20055;-75
2023/06/29 08:27:37;;;;;;;9.20;4.18;;;;;;;22.46;37.68;101062.94;5087961;28;20079;-74
2023/06/29 08:30:07;;;;;;;7.00;4.22;;;;;;;22.51;38.16;101070.66;5067495;28;20127;-74
2023/06/29 08:32:35;;;;;;;5.70;4.00;;;;;;;22.50;37.99;101069.84;5075004;28;20060;-74
2023/06/29 08:35:04;;;;;;;7.07;4.50;;;;;;;22.53;37.88;101060.16;5066602;28;20048;-73
2023/06/29 08:37:32;;;;;;;5.97;4.15;;;;;;;22.53;37.81;101063.84;5066684;28;20123;-74
2023/06/29 08:40:00;;;;;;;8.00;4.40;;;;;;;22.56;37.99;101063.44;5072853;28;20063;-73
2023/06/29 08:42:28;;;;;;;6.53;4.45;;;;;;;22.60;37.68;101063.88;5079705;28;20085;-73
2023/06/29 08:44:56;;;;;;;9.15;4.90;;;;;;;22.60;38.29;101064.72;5088866;28;20044;-73
2023/06/29 08:47:27;;;;;;;6.85;4.90;;;;;;;22.66;37.82;101065.84;5064960;28;20052;-74
2023/06/29 08:49:58;;;;;;;7.80;4.45;;;;;;;22.69;37.74;101062.63;5065842;28;20128;-73
2023/06/29 08:52:27;;;;;;;9.15;4.70;;;;;;;22.71;37.75;101063.28;5073671;28;20788;-74
2023/06/29 08:54:57;;;;;;;8.13;5.13;;;;;;;22.72;37.85;101055.78;5088583;27;20102;-74
2023/06/29 08:57:27;;;;;;;7.10;5.07;;;;;;;22.73;37.78;101051.91;5102429;28;20047;-73
2023/06/29 08:59:56;;;;;;;7.28;4.60;;;;;;;22.76;37.79;101049.56;5089685;28;20048;-73
2023/06/29 09:02:25;;;;;;;8.27;4.63;;;;;;;22.79;37.70;101049.13;5107005;28;20139;-74
2023/06/29 09:04:53;;;;;;;7.45;4.60;;;;;;;22.79;37.52;101053.84;5097688;28;20043;-73
2023/06/29 09:07:21;;;;;;;8.88;4.82;;;;;;;22.81;37.87;101048.94;5101818;28;20043;-73
2023/06/29 09:09:50;;;;;;;7.57;4.68;;;;;;;22.82;37.38;101053.44;5108162;28;20054;-74
2023/06/29 09:12:18;;;;;;;6.70;4.72;;;;;;;22.83;37.69;101050.47;5086815;28;20130;-73
2023/06/29 09:14:48;;;;;;;7.07;5.18;;;;;;;22.86;37.48;101049.16;5089663;28;20142;-75
2023/06/29 09:17:17;;;;;;;8.27;5.47;;;;;;;22.86;37.51;101047.22;5105450;28;20082;-75
2023/06/29 09:19:54;;;;;;;6.13;4.70;;;;;;;22.89;37.54;101043.16;5104964;28;20062;-74
2023/06/29 09:22:23;;;;;;;8.05;5.25;;;;;;;22.86;37.65;101046.34;5104220;28;20509;-74
2023/06/29 09:24:56;;;;;;;8.10;5.45;;;;;;;22.88;37.50;101044.22;5085234;28;20126;-74
2023/06/29 09:27:37;;;;;;;8.95;5.50;;;;;;;22.86;37.58;101040.78;5107111;28;20035;-75
2023/06/29 09:30:06;;;;;;;10.13;6.15;;;;;;;22.86;37.55;101036.06;5108338;28;20508;-75
2023/06/29 09:32:38;;;;;;;8.68;6.00;;;;;;;22.89;37.80;101037.56;5106634;28;20104;-74
2023/06/29 09:35:09;;;;;;;9.05;5.45;;;;;;;22.88;37.63;101039.50;5106887;28;20386;-75
2023/06/29 09:37:37;;;;;;;9.20;6.10;;;;;;;22.88;37.67;101041.44;5090709;28;20044;-75
2023/06/29 09:40:09;;;;;;;10.82;5.72;;;;;;;22.91;38.07;101038.25;5106878;28;20040;-75
2023/06/29 09:42:38;;;;;;;10.93;6.28;;;;;;;22.89;37.68;101026.41;5108153;28;20043;-74
2023/06/29 09:45:11;;;;;;;8.63;5.72;;;;;;;22.96;38.11;101027.28;5090011;28;20036;-74
2023/06/29 09:47:41;;;;;;;11.40;6.75;;;;;;;22.97;38.03;101029.88;5104782;28;20082;-75
2023/06/29 09:50:21;;;;;;;8.77;6.38;;;;;;;23.03;37.89;101029.00;5090609;28;20043;-75
2023/06/29 09:52:52;;;;;;;7.55;5.45;;;;;;;23.06;37.97;101033.31;5110668;28;20079;-74
2023/06/29 09:55:30;;;;;;;8.32;5.97;;;;;;;23.13;37.91;101027.75;5089960;28;20039;-74
2023/06/29 09:58:00;;;;;;;8.68;6.20;;;;;;;23.19;37.75;101035.28;5106896;28;20032;-75
2023/06/29 10:00:28;;;;;;;9.35;6.63;;;;;;;23.25;37.95;101034.47;5105932;28;20126;-74
2023/06/29 10:02:56;;;;;;;9.55;6.93;;;;;;;23.30;37.99;101038.31;5106189;28;20066;-75
2023/06/29 10:05:27;;;;;;;11.32;7.43;;;;;;;23.38;37.64;101021.34;5108337;28;20101;-75
2023/06/29 10:07:56;;;;;;;8.88;6.68;;;;;;;23.43;37.60;101026.28;5102514;28;20039;-75
2023/06/29 10:10:25;;;;;;;11.57;7.30;;;;;;;23.49;37.48;101027.38;5104465;28;20064;-74
2023/06/29 10:12:56;;;;;;;10.00;7.28;;;;;;;23.56;37.23;101031.00;5107162;28;20047;-74
2023/06/29 10:15:27;;;;;;;9.57;7.03;;;;;;;23.60;37.64;101029.50;5107166;28;20101;-74
2023/06/29 10:18:02;;;;;;;10.02;7.10;;;;;;;23.71;37.65;101035.28;5102042;28;20047;-75
2023/06/29 10:20:35;;;;;;;9.68;7.35;;;;;;;23.77;37.51;101033.59;5086802;28;20039;-75
2023/06/29 10:23:07;;;;;;;9.48;6.65;;;;;;;23.85;37.08;101026.91;5086204;28;20064;-74
2023/06/29 10:25:40;;;;;;;9.33;7.23;;;;;;;23.91;37.11;101021.28;5104056;28;20537;-74
2023/06/29 10:28:09;;;;;;;10.85;7.05;;;;;;;24.00;37.19;101016.34;5106513;28;20082;-74
2023/06/29 10:30:44;;;;;;;10.07;6.40;;;;;;;24.11;36.80;101019.31;5106695;28;20120;-75
2023/06/29 10:33:14;;;;;;;10.98;7.10;;;;;;;24.17;37.04;101017.56;5084072;28;20048;-75
2023/06/29 10:35:52;;;;;;;11.63;7.95;;;;;;;24.30;36.45;101011.09;5106364;28;20589;-75
2023/06/29 10:38:19;;;;;;;9.93;6.93;;;;;;;24.33;36.21;101010.63;5088605;28;20403;-75
2023/06/29 10:40:48;;;;;;;9.73;6.95;;;;;;;24.42;36.41;101012.13;5107039;28;20028;-74
2023/06/29 10:43:16;;;;;;;12.15;7.25;;;;;;;24.47;36.14;101013.19;5104681;28;20043;-75
2023/06/29 10:45:44;;;;;;;10.60;6.85;;;;;;;24.54;35.86;101006.72;5102367;28;20212;-74
2023/06/29 10:48:17;;;;;;;10.57;7.07;;;;;;;24.62;35.42;101004.50;5104976;28;20040;-75
2023/06/29 10:51:09;;;;;;;10.05;6.97;;;;;;;24.67;35.22;100998.22;5104209;28;20035;-74
2023/06/29 10:53:39;;;;;;;;;;;;;;;24.36;35.90;100997.09;5092244;27;20117;-74
2023/06/29 10:56:28;;;;;;;9.15;6.60;;;;;;;24.67;35.50;100989.81;5106598;28;20113;-75
2023/06/29 10:58:56;;;;;;;7.85;6.18;;;;;;;24.74;35.48;100987.84;5106184;28;20395;-75
2023/06/29 11:01:24;;;;;;;8.60;6.22;;;;;;;24.77;35.43;100995.81;5089507;28;20040;-75
2023/06/29 11:03:52;;;;;;;10.77;6.93;;;;;;;24.79;35.69;100991.72;5110978;28;20035;-75
2023/06/29 11:06:22;;;;;;;10.38;6.45;;;;;;;24.82;35.10;101004.38;5106000;28;20480;-75
2023/06/29 11:09:02;;;;;;;9.93;6.25;;;;;;;24.81;35.39;100997.91;5091834;28;20062;-75
2023/06/29 11:11:30;;;;;;;10.98;7.25;;;;;;;24.82;35.47;100988.44;5109828;28;20036;-75
2023/06/29 11:14:02;;;;;;;9.43;6.32;;;;;;;24.82;35.14;100990.38;5107261;28;20071;-75
2023/06/29 11:16:31;;;;;;;10.63;6.75;;;;;;;24.79;35.18;100985.25;5088529;28;20063;-75
2023/06/29 11:19:01;;;;;;;10.30;7.20;;;;;;;24.82;35.05;100999.63;5090163;28;20130;-76
2023/06/29 11:21:30;;;;;;;9.63;6.80;;;;;;;24.81;35.21;100988.69;5107118;28;20032;-75
2023/06/29 11:23:58;;;;;;;11.10;6.93;;;;;;;24.78;35.14;100989.13;5110357;28;20038;-75
2023/06/29 11:26:26;;;;;;;9.98;6.78;;;;;;;24.76;35.47;100994.09;5107398;28;20071;-75
2023/06/29 11:28:55;;;;;;;10.38;7.07;;;;;;;24.74;35.03;100988.69;5094689;28;20049;-79
2023/06/29 11:31:23;;;;;;;11.35;7.20;;;;;;;24.72;35.21;100985.28;5097231;28;20071;-78
2023/06/29 11:33:52;;;;;;;9.80;6.60;;;;;;;24.73;35.26;100988.97;5100823;28;20039;-79